sensor_id;sensor_type;location;lat;lon;timestamp;pressure;altitude;pressure_sealevel;temperature;humidity
53932;BME280;39844;52.496;13.482;2023-07-20T00:02:03;100796.47;;;17.85;92.47
53932;BME280;39844;52.496;13.482;2023-07-20T00:04:28;100781.53;;;17.81;91.86
53932;BME280;39844;52.496;13.482;2023-07-20T00:06:54;100789.56;;;17.79;91.25
53932;BME280;39844;52.496;13.482;2023-07-20T00:09:19;100791.28;;;17.80;93.43
53932;BME280;39844;52.496;13.482;2023-07-20T00:11:49;100791.28;;;17.80;93.28
53932;BME280;39844;52.496;13.482;2023-07-20T00:14:15;100792.16;;;17.81;93.93
53932;BME280;39844;52.496;13.482;2023-07-20T00:16:40;100801.06;;;17.80;94.04
53932;BME280;39844;52.496;13.482;2023-07-20T00:19:05;100802.78;;;17.81;96.04
53932;BME280;39844;52.496;13.482;2023-07-20T00:21:31;100796.69;;;17.77;95.00
53932;BME280;39844;52.496;13.482;2023-07-20T00:23:56;100796.84;;;17.73;95.54
53932;BME280;39844;52.496;13.482;2023-07-20T00:26:21;100800.63;;;17.65;94.05
53932;BME280;39844;52.496;13.482;2023-07-20T00:28:49;100801.63;;;17.61;95.19
53932;BME280;39844;52.496;13.482;2023-07-20T00:31:15;100794.50;;;17.63;97.00
53932;BME280;39844;52.496;13.482;2023-07-20T00:33:40;100786.56;;;17.62;95.83
53932;BME280;39844;52.496;13.482;2023-07-20T00:36:05;100798.03;;;17.62;96.73
53932;BME280;39844;52.496;13.482;2023-07-20T00:38:31;100800.69;;;17.62;96.54
53932;BME280;39844;52.496;13.482;2023-07-20T00:40:56;100795.47;;;17.59;94.73
53932;BME280;39844;52.496;13.482;2023-07-20T00:43:21;100789.34;;;17.57;96.03
53932;BME280;39844;52.496;13.482;2023-07-20T00:45:47;100798.25;;;17.56;96.49
53932;BME280;39844;52.496;13.482;2023-07-20T00:48:13;100800.94;;;17.55;97.01
53932;BME280;39844;52.496;13.482;2023-07-20T00:50:39;100808.97;;;17.53;97.38
53932;BME280;39844;52.496;13.482;2023-07-20T00:53:05;100808.09;;;17.53;97.00
53932;BME280;39844;52.496;13.482;2023-07-20T00:55:31;100805.44;;;17.53;97.18
53932;BME280;39844;52.496;13.482;2023-07-20T00:57:57;100803.72;;;17.50;95.91
53932;BME280;39844;52.496;13.482;2023-07-20T01:00:22;100800.16;;;17.51;97.24
53932;BME280;39844;52.496;13.482;2023-07-20T01:02:47;100794.84;;;17.51;97.06
53932;BME280;39844;52.496;13.482;2023-07-20T01:05:13;100787.78;;;17.50;97.32
53932;BME280;39844;52.496;13.482;2023-07-20T01:10:13;100794.84;;;17.51;97.97
53932;BME280;39844;52.496;13.482;2023-07-20T01:12:46;100796.66;;;17.49;97.84
53932;BME280;39844;52.496;13.482;2023-07-20T01:15:12;100797.63;;;17.47;97.83
53932;BME280;39844;52.496;13.482;2023-07-20T01:17:38;100805.63;;;17.45;97.89
53932;BME280;39844;52.496;13.482;2023-07-20T01:20:05;100795.03;;;17.45;98.38
53932;BME280;39844;52.496;13.482;2023-07-20T01:22:55;100800.34;;;17.45;96.85
53932;BME280;39844;52.496;13.482;2023-07-20T01:25:56;100795.13;;;17.42;97.61
53932;BME280;39844;52.496;13.482;2023-07-20T01:33:43;100806.16;;;17.29;97.62
53932;BME280;39844;52.496;13.482;2023-07-20T01:36:10;100808.94;;;17.24;96.22
53932;BME280;39844;52.496;13.482;2023-07-20T01:38:36;100805.53;;;17.21;97.15
53932;BME280;39844;52.496;13.482;2023-07-20T01:41:02;100802.91;;;17.19;96.65
53932;BME280;39844;52.496;13.482;2023-07-20T01:43:28;100804.91;;;17.11;96.39
53932;BME280;39844;52.496;13.482;2023-07-20T01:45:53;100797.97;;;17.07;96.83
53932;BME280;39844;52.496;13.482;2023-07-20T01:48:18;100796.31;;;17.03;96.71
53932;BME280;39844;52.496;13.482;2023-07-20T01:50:44;100799.78;;;17.05;98.06
53932;BME280;39844;52.496;13.482;2023-07-20T01:53:09;100801.66;;;17.01;97.98
53932;BME280;39844;52.496;13.482;2023-07-20T01:55:34;100803.41;;;17.02;98.12
53932;BME280;39844;52.496;13.482;2023-07-20T01:58:00;100803.44;;;17.01;99.08
53932;BME280;39844;52.496;13.482;2023-07-20T02:00:25;100801.72;;;17.00;98.20
53932;BME280;39844;52.496;13.482;2023-07-20T02:02:50;100800.03;;;16.96;98.38
53932;BME280;39844;52.496;13.482;2023-07-20T02:05:16;100797.50;;;16.93;98.77
53932;BME280;39844;52.496;13.482;2023-07-20T02:07:42;100802.88;;;16.90;98.81
53932;BME280;39844;52.496;13.482;2023-07-20T02:10:07;100809.16;;;16.87;98.07
53932;BME280;39844;52.496;13.482;2023-07-20T02:12:33;100805.69;;;16.84;98.93
53932;BME280;39844;52.496;13.482;2023-07-20T02:14:58;100805.75;;;16.82;99.09
53932;BME280;39844;52.496;13.482;2023-07-20T02:17:23;100805.75;;;16.82;99.39
53932;BME280;39844;52.496;13.482;2023-07-20T02:19:52;100805.75;;;16.82;99.38
53932;BME280;39844;52.496;13.482;2023-07-20T02:22:18;100804.16;;;16.77;98.34
53932;BME280;39844;52.496;13.482;2023-07-20T02:24:43;100800.66;;;16.75;99.25
53932;BME280;39844;52.496;13.482;2023-07-20T02:27:11;100808.53;;;16.78;100.00
53932;BME280;39844;52.496;13.482;2023-07-20T02:29:36;100796.09;;;16.80;100.00
53932;BME280;39844;52.496;13.482;2023-07-20T02:32:02;100798.78;;;16.78;99.63
53932;BME280;39844;52.496;13.482;2023-07-20T02:34:27;100791.84;;;16.74;98.71
53932;BME280;39844;52.496;13.482;2023-07-20T02:36:52;100791.91;;;16.73;100.00
53932;BME280;39844;52.496;13.482;2023-07-20T02:39:18;100795.28;;;16.78;100.00
53932;BME280;39844;52.496;13.482;2023-07-20T02:41:43;100796.28;;;16.74;98.82
53932;BME280;39844;52.496;13.482;2023-07-20T02:44:08;100794.56;;;16.71;99.37
53932;BME280;39844;52.496;13.482;2023-07-20T02:46:34;100790.16;;;16.72;99.52
53932;BME280;39844;52.496;13.482;2023-07-20T02:48:59;100797.34;;;16.67;98.24
53932;BME280;39844;52.496;13.482;2023-07-20T02:51:24;100800.16;;;16.62;97.94
53932;BME280;39844;52.496;13.482;2023-07-20T02:53:49;100805.44;;;16.62;100.00
53932;BME280;39844;52.496;13.482;2023-07-20T02:56:15;100817.84;;;16.60;98.32
53932;BME280;39844;52.496;13.482;2023-07-20T02:58:41;100811.69;;;16.60;100.00
53932;BME280;39844;52.496;13.482;2023-07-20T03:01:07;100820.47;;;16.62;100.00
53932;BME280;39844;52.496;13.482;2023-07-20T03:03:32;100823.94;;;16.64;100.00
53932;BME280;39844;52.496;13.482;2023-07-20T03:05:57;100827.41;;;16.66;100.00
53932;BME280;39844;52.496;13.482;2023-07-20T03:08:22;100834.53;;;16.64;99.60
53932;BME280;39844;52.496;13.482;2023-07-20T03:10:48;100839.91;;;16.61;99.04
53932;BME280;39844;52.496;13.482;2023-07-20T03:13:13;100840.06;;;16.56;99.91
53932;BME280;39844;52.496;13.482;2023-07-20T03:15:38;100839.41;;;16.47;98.79
53932;BME280;39844;52.496;13.482;2023-07-20T03:18:04;100837.78;;;16.41;100.00
53932;BME280;39844;52.496;13.482;2023-07-20T03:20:29;100840.47;;;16.39;100.00
53932;BME280;39844;52.496;13.482;2023-07-20T03:22:54;100838.72;;;16.38;100.00
53932;BME280;39844;52.496;13.482;2023-07-20T03:25:19;100834.31;;;16.39;100.00
53932;BME280;39844;52.496;13.482;2023-07-20T03:27:45;100840.47;;;16.39;100.00
53932;BME280;39844;52.496;13.482;2023-07-20T03:30:10;100840.50;;;16.38;100.00
53932;BME280;39844;52.496;13.482;2023-07-20T03:32:36;100831.66;;;16.37;100.00
53932;BME280;39844;52.496;13.482;2023-07-20T03:35:01;100833.34;;;16.41;100.00
53932;BME280;39844;52.496;13.482;2023-07-20T03:37:27;100823.53;;;16.45;100.00
53932;BME280;39844;52.496;13.482;2023-07-20T03:39:52;100835.00;;;16.45;100.00
53932;BME280;39844;52.496;13.482;2023-07-20T03:42:17;100842.06;;;16.47;100.00
53932;BME280;39844;52.496;13.482;2023-07-20T03:44:43;100839.28;;;16.51;100.00
53932;BME280;39844;52.496;13.482;2023-07-20T03:47:08;100836.59;;;16.53;100.00
53932;BME280;39844;52.496;13.482;2023-07-20T03:49:33;100840.13;;;16.53;99.61
53932;BME280;39844;52.496;13.482;2023-07-20T03:51:58;100840.88;;;16.58;100.00
53932;BME280;39844;52.496;13.482;2023-07-20T03:54:24;100839.09;;;16.59;99.14
53932;BME280;39844;52.496;13.482;2023-07-20T03:56:49;100847.88;;;16.61;100.00
53932;BME280;39844;52.496;13.482;2023-07-20T03:59:14;100848.69;;;16.63;98.24
53932;BME280;39844;52.496;13.482;2023-07-20T04:01:40;100844.41;;;16.59;98.40
53932;BME280;39844;52.496;13.482;2023-07-20T04:04:06;100844.31;;;16.62;99.63
53932;BME280;39844;52.496;13.482;2023-07-20T04:06:32;100847.78;;;16.65;99.73
53932;BME280;39844;52.496;13.482;2023-07-20T04:08:57;100851.19;;;16.69;100.00
53932;BME280;39844;52.496;13.482;2023-07-20T04:11:23;100855.59;;;16.70;99.02
53932;BME280;39844;52.496;13.482;2023-07-20T04:13:48;100852.97;;;16.68;99.10
53932;BME280;39844;52.496;13.482;2023-07-20T04:16:13;100861.81;;;16.69;99.44
53932;BME280;39844;52.496;13.482;2023-07-20T04:18:39;100862.81;;;16.65;99.45
53932;BME280;39844;52.496;13.482;2023-07-20T04:21:04;100860.16;;;16.65;98.21
53932;BME280;39844;52.496;13.482;2023-07-20T04:23:29;100858.53;;;16.59;98.02
53932;BME280;39844;52.496;13.482;2023-07-20T04:25:55;100848.88;;;16.57;98.35
53932;BME280;39844;52.496;13.482;2023-07-20T04:28:20;100852.44;;;16.56;98.51
53932;BME280;39844;52.496;13.482;2023-07-20T04:30:49;100857.72;;;16.56;99.13
53932;BME280;39844;52.496;13.482;2023-07-20T04:33:14;100859.56;;;16.54;97.97
53932;BME280;39844;52.496;13.482;2023-07-20T04:38:14;100869.16;;;16.58;99.29
53932;BME280;39844;52.496;13.482;2023-07-20T04:40:39;100866.59;;;16.55;98.77
53932;BME280;39844;52.496;13.482;2023-07-20T04:43:04;100872.56;;;16.63;100.00
53932;BME280;39844;52.496;13.482;2023-07-20T04:45:30;100875.19;;;16.63;97.46
53932;BME280;39844;52.496;13.482;2023-07-20T04:47:55;100874.38;;;16.61;97.30
53932;BME280;39844;52.496;13.482;2023-07-20T04:50:20;100875.31;;;16.60;97.73
53932;BME280;39844;52.496;13.482;2023-07-20T04:52:46;100869.81;;;16.67;99.82
53932;BME280;39844;52.496;13.482;2023-07-20T04:55:11;100866.88;;;16.78;99.56
53932;BME280;39844;52.496;13.482;2023-07-20T04:57:36;100873.06;;;16.77;95.44
53932;BME280;39844;52.496;13.482;2023-07-20T05:00:02;100865.25;;;16.72;94.49
53932;BME280;39844;52.496;13.482;2023-07-20T05:02:27;100875.81;;;16.74;94.81
53932;BME280;39844;52.496;13.482;2023-07-20T05:04:52;100880.97;;;16.78;95.01
53932;BME280;39844;52.496;13.482;2023-07-20T05:07:18;100883.53;;;16.83;95.30
53932;BME280;39844;52.496;13.482;2023-07-20T05:09:43;100885.09;;;16.90;96.63
53932;BME280;39844;52.496;13.482;2023-07-20T05:12:08;100876.13;;;16.94;95.37
53932;BME280;39844;52.496;13.482;2023-07-20T05:14:34;100871.66;;;16.96;93.77
53932;BME280;39844;52.496;13.482;2023-07-20T05:16:59;100863.75;;;16.94;92.92
53932;BME280;39844;52.496;13.482;2023-07-20T05:19:25;100872.59;;;16.93;92.11
53932;BME280;39844;52.496;13.482;2023-07-20T05:21:50;100883.31;;;16.90;91.29
53932;BME280;39844;52.496;13.482;2023-07-20T05:24:15;100879.81;;;16.88;90.88
53932;BME280;39844;52.496;13.482;2023-07-20T05:26:41;100879.91;;;16.85;91.47
53932;BME280;39844;52.496;13.482;2023-07-20T05:29:06;100879.06;;;16.83;88.97
53932;BME280;39844;52.496;13.482;2023-07-20T05:31:31;100880.13;;;16.78;88.32
53932;BME280;39844;52.496;13.482;2023-07-20T05:33:56;100884.47;;;16.80;89.41
53932;BME280;39844;52.496;13.482;2023-07-20T05:36:22;100879.00;;;16.86;89.14
53932;BME280;39844;52.496;13.482;2023-07-20T05:38:47;100875.38;;;16.89;86.46
53932;BME280;39844;52.496;13.482;2023-07-20T05:41:12;100890.28;;;16.94;87.04
53932;BME280;39844;52.496;13.482;2023-07-20T05:43:38;100885.78;;;16.96;86.70
53932;BME280;39844;52.496;13.482;2023-07-20T05:46:03;100886.66;;;16.97;85.34
53932;BME280;39844;52.496;13.482;2023-07-20T05:48:28;100886.66;;;16.97;84.76
53932;BME280;39844;52.496;13.482;2023-07-20T05:50:56;100887.25;;;17.08;86.33
53932;BME280;39844;52.496;13.482;2023-07-20T05:53:21;100886.16;;;17.15;84.85
53932;BME280;39844;52.496;13.482;2023-07-20T05:55:52;100882.50;;;17.19;83.47
53932;BME280;39844;52.496;13.482;2023-07-20T05:58:17;100883.94;;;17.31;84.77
53932;BME280;39844;52.496;13.482;2023-07-20T06:00:42;100887.34;;;17.34;83.73
53932;BME280;39844;52.496;13.482;2023-07-20T06:03:08;100889.91;;;17.39;82.30
53932;BME280;39844;52.496;13.482;2023-07-20T06:05:33;100887.78;;;17.50;83.65
53932;BME280;39844;52.496;13.482;2023-07-20T06:07:58;100893.91;;;17.53;81.81
53932;BME280;39844;52.496;13.482;2023-07-20T06:10:24;100899.13;;;17.56;82.39
53932;BME280;39844;52.496;13.482;2023-07-20T06:12:49;100903.59;;;17.54;82.33
53932;BME280;39844;52.496;13.482;2023-07-20T06:15:32;100908.13;;;17.49;82.42
53932;BME280;39844;52.496;13.482;2023-07-20T06:17:57;100899.44;;;17.44;81.14
53932;BME280;39844;52.496;13.482;2023-07-20T06:20:23;100907.53;;;17.40;80.69
53932;BME280;39844;52.496;13.482;2023-07-20T06:22:48;100908.50;;;17.37;81.44
53932;BME280;39844;52.496;13.482;2023-07-20T06:25:14;100906.78;;;17.36;81.75
53932;BME280;39844;52.496;13.482;2023-07-20T06:27:39;100915.50;;;17.40;82.79
53932;BME280;39844;52.496;13.482;2023-07-20T06:30:05;100914.41;;;17.47;83.30
53932;BME280;39844;52.496;13.482;2023-07-20T06:32:30;100921.47;;;17.48;84.17
53932;BME280;39844;52.496;13.482;2023-07-20T06:34:58;100918.94;;;17.43;81.61
53932;BME280;39844;52.496;13.482;2023-07-20T06:37:23;100914.59;;;17.41;81.33
53932;BME280;39844;52.496;13.482;2023-07-20T06:39:49;100919.91;;;17.41;80.95
53932;BME280;39844;52.496;13.482;2023-07-20T06:42:14;100904.94;;;17.38;79.83
53932;BME280;39844;52.496;13.482;2023-07-20T06:44:39;100912.81;;;17.41;80.37
53932;BME280;39844;52.496;13.482;2023-07-20T06:47:05;100918.75;;;17.49;80.18
53932;BME280;39844;52.496;13.482;2023-07-20T06:49:30;100922.91;;;17.59;78.69
53932;BME280;39844;52.496;13.482;2023-07-20T06:51:56;100917.56;;;17.61;78.89
53932;BME280;39844;52.496;13.482;2023-07-20T06:54:22;100924.66;;;17.60;76.92
53932;BME280;39844;52.496;13.482;2023-07-20T06:56:47;100925.47;;;17.62;76.66
53932;BME280;39844;52.496;13.482;2023-07-20T06:59:12;100923.66;;;17.64;77.30
53932;BME280;39844;52.496;13.482;2023-07-20T07:01:38;100932.47;;;17.65;75.65
53932;BME280;39844;52.496;13.482;2023-07-20T07:04:03;100939.53;;;17.66;76.56
53932;BME280;39844;52.496;13.482;2023-07-20T07:06:29;100939.22;;;17.77;76.74
53932;BME280;39844;52.496;13.482;2023-07-20T07:08:54;100931.22;;;17.78;74.68
53932;BME280;39844;52.496;13.482;2023-07-20T07:11:20;100928.53;;;17.80;72.45
53932;BME280;39844;52.496;13.482;2023-07-20T07:13:46;100932.16;;;17.76;71.84
53932;BME280;39844;52.496;13.482;2023-07-20T07:16:11;100926.06;;;17.72;71.64
53932;BME280;39844;52.496;13.482;2023-07-20T07:18:36;100920.91;;;17.67;72.33
53932;BME280;39844;52.496;13.482;2023-07-20T07:21:02;100926.19;;;17.69;72.69
53932;BME280;39844;52.496;13.482;2023-07-20T07:23:27;100923.66;;;17.64;72.47
53932;BME280;39844;52.496;13.482;2023-07-20T07:25:52;100933.13;;;17.73;73.25
53932;BME280;39844;52.496;13.482;2023-07-20T07:28:17;100934.59;;;17.83;72.28
53932;BME280;39844;52.496;13.482;2023-07-20T07:30:43;100931.69;;;17.91;70.98
53932;BME280;39844;52.496;13.482;2023-07-20T07:33:08;100937.06;;;17.89;70.69
53932;BME280;39844;52.496;13.482;2023-07-20T07:35:33;100932.63;;;17.90;69.37
53932;BME280;39844;52.496;13.482;2023-07-20T07:37:59;100932.34;;;17.99;68.89
53932;BME280;39844;52.496;13.482;2023-07-20T07:40:24;100929.94;;;18.19;69.89
53932;BME280;39844;52.496;13.482;2023-07-20T07:42:49;100929.34;;;18.37;67.99
53932;BME280;39844;52.496;13.482;2023-07-20T07:45:15;100932.41;;;18.53;68.18
53932;BME280;39844;52.496;13.482;2023-07-20T07:47:40;100927.44;;;18.68;67.91
53932;BME280;39844;52.496;13.482;2023-07-20T07:50:05;100926.16;;;18.80;66.84
53932;BME280;39844;52.496;13.482;2023-07-20T07:52:31;100928.34;;;18.93;65.43
53932;BME280;39844;52.496;13.482;2023-07-20T07:54:56;100922.91;;;18.97;64.09
53932;BME280;39844;52.496;13.482;2023-07-20T07:57:22;100928.78;;;19.06;64.45
53932;BME280;39844;52.496;13.482;2023-07-20T07:59:47;100932.31;;;19.07;63.24
53932;BME280;39844;52.496;13.482;2023-07-20T08:02:12;100936.78;;;19.05;62.32
53932;BME280;39844;52.496;13.482;2023-07-20T08:04:37;100943.09;;;19.02;62.72
53932;BME280;39844;52.496;13.482;2023-07-20T08:07:04;100942.88;;;19.08;63.60
53932;BME280;39844;52.496;13.482;2023-07-20T08:09:29;100939.16;;;19.14;63.26
53932;BME280;39844;52.496;13.482;2023-07-20T08:11:54;100940.59;;;19.22;62.02
53932;BME280;39844;52.496;13.482;2023-07-20T08:14:20;100934.19;;;19.28;61.57
53932;BME280;39844;52.496;13.482;2023-07-20T08:16:45;100933.75;;;19.40;61.27
53932;BME280;39844;52.496;13.482;2023-07-20T08:19:10;100937.00;;;19.48;62.00
53932;BME280;39844;52.496;13.482;2023-07-20T08:21:35;100934.13;;;19.54;61.79
53932;BME280;39844;52.496;13.482;2023-07-20T08:24:01;100932.53;;;19.50;60.71
53932;BME280;39844;52.496;13.482;2023-07-20T08:26:26;100942.59;;;19.42;60.55
53932;BME280;39844;52.496;13.482;2023-07-20T08:28:51;100961.91;;;19.47;60.50
53932;BME280;39844;52.496;13.482;2023-07-20T08:31:17;100953.88;;;19.48;59.18
53932;BME280;39844;52.496;13.482;2023-07-20T08:33:42;100963.88;;;19.42;58.41
53932;BME280;39844;52.496;13.482;2023-07-20T08:36:07;100962.25;;;19.38;58.58
53932;BME280;39844;52.496;13.482;2023-07-20T08:38:33;100956.81;;;19.41;58.81
53932;BME280;39844;52.496;13.482;2023-07-20T08:40:58;100954.63;;;19.52;59.00
53932;BME280;39844;52.496;13.482;2023-07-20T08:43:24;100958.09;;;19.54;58.96
53932;BME280;39844;52.496;13.482;2023-07-20T08:45:51;100957.75;;;19.63;59.08
53932;BME280;39844;52.496;13.482;2023-07-20T08:48:20;100953.88;;;19.72;58.78
53932;BME280;39844;52.496;13.482;2023-07-20T08:50:47;100948.47;;;19.73;58.26
53932;BME280;39844;52.496;13.482;2023-07-20T08:53:14;100950.34;;;19.71;58.55
53932;BME280;39844;52.496;13.482;2023-07-20T08:55:40;100955.34;;;19.80;59.28
53932;BME280;39844;52.496;13.482;2023-07-20T08:58:08;100954.06;;;19.90;59.02
53932;BME280;39844;52.496;13.482;2023-07-20T09:00:35;100956.84;;;19.87;58.21
53932;BME280;39844;52.496;13.482;2023-07-20T09:03:02;100957.16;;;19.78;57.90
53932;BME280;39844;52.496;13.482;2023-07-20T09:05:28;100957.63;;;19.66;57.62
53932;BME280;39844;52.496;13.482;2023-07-20T09:07:53;100962.38;;;19.58;58.28
53932;BME280;39844;52.496;13.482;2023-07-20T09:10:23;100966.09;;;19.54;58.73
53932;BME280;39844;52.496;13.482;2023-07-20T09:12:48;100967.84;;;19.55;59.63
53932;BME280;39844;52.496;13.482;2023-07-20T09:15:14;100965.28;;;19.52;56.74
53932;BME280;39844;52.496;13.482;2023-07-20T09:17:45;100955.50;;;19.52;57.78
53932;BME280;39844;52.496;13.482;2023-07-20T09:20:11;100955.16;;;19.62;57.72
53932;BME280;39844;52.496;13.482;2023-07-20T09:22:37;100950.22;;;19.74;57.08
53932;BME280;39844;52.496;13.482;2023-07-20T09:25:06;100953.38;;;19.85;56.55
53932;BME280;39844;52.496;13.482;2023-07-20T09:27:46;100951.03;;;19.99;56.22
53932;BME280;39844;52.496;13.482;2023-07-20T09:30:13;100941.69;;;20.11;55.07
53932;BME280;39844;52.496;13.482;2023-07-20T09:35:04;100942.94;;;20.24;54.87
53932;BME280;39844;52.496;13.482;2023-07-20T09:37:32;100942.28;;;20.41;54.77
53932;BME280;39844;52.496;13.482;2023-07-20T09:39:58;100950.69;;;20.52;54.73
53932;BME280;39844;52.496;13.482;2023-07-20T09:42:25;100948.69;;;20.57;53.32
53932;BME280;39844;52.496;13.482;2023-07-20T09:44:50;100945.50;;;20.49;53.70
53932;BME280;39844;52.496;13.482;2023-07-20T09:47:23;100944.84;;;20.44;54.39
53932;BME280;39844;52.496;13.482;2023-07-20T09:49:48;100942.97;;;20.46;55.46
53932;BME280;39844;52.496;13.482;2023-07-20T09:52:14;100953.94;;;20.38;54.76
53932;BME280;39844;52.496;13.482;2023-07-20T09:54:44;100945.72;;;20.21;55.32
53932;BME280;39844;52.496;13.482;2023-07-20T09:57:09;100949.72;;;20.09;55.32
53932;BME280;39844;52.496;13.482;2023-07-20T09:59:35;100953.69;;;19.99;55.72
53932;BME280;39844;52.496;13.482;2023-07-20T10:02:02;100949.53;;;19.92;56.50
53932;BME280;39844;52.496;13.482;2023-07-20T10:04:30;100969.56;;;19.79;56.45
53932;BME280;39844;52.496;13.482;2023-07-20T10:06:58;100964.75;;;19.66;58.02
53932;BME280;39844;52.496;13.482;2023-07-20T10:09:25;100980.38;;;19.51;58.39
53932;BME280;39844;52.496;13.482;2023-07-20T10:11:51;100978.22;;;19.38;59.34
53932;BME280;39844;52.496;13.482;2023-07-20T10:14:20;100978.09;;;19.16;62.55
53932;BME280;39844;52.496;13.482;2023-07-20T10:16:54;100983.06;;;19.01;64.84
53932;BME280;39844;52.496;13.482;2023-07-20T10:19:26;100971.50;;;19.02;66.16
53932;BME280;39844;52.496;13.482;2023-07-20T10:22:00;100974.91;;;19.05;65.17
53932;BME280;39844;52.496;13.482;2023-07-20T10:24:26;100965.78;;;19.12;64.69
53932;BME280;39844;52.496;13.482;2023-07-20T10:26:54;100970.63;;;19.26;65.56
53932;BME280;39844;52.496;13.482;2023-07-20T10:29:20;100973.84;;;19.37;64.14
53932;BME280;39844;52.496;13.482;2023-07-20T10:31:45;100973.56;;;19.44;63.90
53932;BME280;39844;52.496;13.482;2023-07-20T10:34:11;100978.81;;;19.46;63.11
53932;BME280;39844;52.496;13.482;2023-07-20T10:36:44;100972.56;;;19.47;61.81
53932;BME280;39844;52.496;13.482;2023-07-20T10:39:22;100976.81;;;19.52;62.39
53932;BME280;39844;52.496;13.482;2023-07-20T10:41:48;100975.94;;;19.52;61.36
53932;BME280;39844;52.496;13.482;2023-07-20T10:44:13;100977.94;;;19.45;61.25
53932;BME280;39844;52.496;13.482;2023-07-20T10:46:45;100981.41;;;19.47;61.74
53932;BME280;39844;52.496;13.482;2023-07-20T10:49:12;100980.59;;;19.45;61.09
53932;BME280;39844;52.496;13.482;2023-07-20T10:51:49;100981.47;;;19.46;60.88
53932;BME280;39844;52.496;13.482;2023-07-20T10:56:50;100984.25;;;19.43;60.03
53932;BME280;39844;52.496;13.482;2023-07-20T11:01:59;100986.22;;;19.36;60.65
53932;BME280;39844;52.496;13.482;2023-07-20T11:04:43;100980.13;;;19.33;61.37
53932;BME280;39844;52.496;13.482;2023-07-20T11:07:09;100982.78;;;19.34;62.38
53932;BME280;39844;52.496;13.482;2023-07-20T11:09:35;100984.66;;;19.31;62.01
53932;BME280;39844;52.496;13.482;2023-07-20T11:12:15;100983.84;;;19.29;61.77
53932;BME280;39844;52.496;13.482;2023-07-20T11:14:54;100989.06;;;19.32;62.24
53932;BME280;39844;52.496;13.482;2023-07-20T11:17:20;100987.84;;;19.42;62.30
53932;BME280;39844;52.496;13.482;2023-07-20T11:19:48;100989.25;;;19.52;61.70
53932;BME280;39844;52.496;13.482;2023-07-20T11:22:16;100990.13;;;19.76;62.44
53932;BME280;39844;52.496;13.482;2023-07-20T11:24:42;100990.81;;;19.81;60.67
53932;BME280;39844;52.496;13.482;2023-07-20T11:27:08;100999.78;;;19.78;58.00
53932;BME280;39844;52.496;13.482;2023-07-20T11:29:34;100975.78;;;19.80;58.15
53932;BME280;39844;52.496;13.482;2023-07-20T11:32:01;100986.03;;;19.90;58.27
53932;BME280;39844;52.496;13.482;2023-07-20T11:34:26;100990.53;;;19.88;59.02
53932;BME280;39844;52.496;13.482;2023-07-20T11:36:52;100987.16;;;19.83;58.90
53932;BME280;39844;52.496;13.482;2023-07-20T11:39:18;100988.28;;;19.78;59.04
53932;BME280;39844;52.496;13.482;2023-07-20T11:41:47;100977.44;;;20.05;60.08
53932;BME280;39844;52.496;13.482;2023-07-20T11:44:12;100978.13;;;20.34;57.69
53932;BME280;39844;52.496;13.482;2023-07-20T11:46:38;100972.91;;;20.31;57.37
53932;BME280;39844;52.496;13.482;2023-07-20T11:49:03;100974.72;;;20.30;57.25
53932;BME280;39844;52.496;13.482;2023-07-20T11:51:31;100973.09;;;20.69;57.56
53932;BME280;39844;52.496;13.482;2023-07-20T11:53:57;100974.06;;;21.30;55.41
53932;BME280;39844;52.496;13.482;2023-07-20T11:56:24;100970.81;;;21.63;53.84
53932;BME280;39844;52.496;13.482;2023-07-20T11:58:53;100964.13;;;21.53;53.92
53932;BME280;39844;52.496;13.482;2023-07-20T12:01:19;100965.16;;;21.69;54.96
53932;BME280;39844;52.496;13.482;2023-07-20T12:03:44;100963.28;;;21.91;53.55
53932;BME280;39844;52.496;13.482;2023-07-20T12:06:10;100961.81;;;22.21;52.06
53932;BME280;39844;52.496;13.482;2023-07-20T12:08:39;100964.91;;;22.12;51.47
53932;BME280;39844;52.496;13.482;2023-07-20T12:11:05;100965.22;;;21.87;50.21
53932;BME280;39844;52.496;13.482;2023-07-20T12:13:42;100973.22;;;21.49;50.30
53932;BME280;39844;52.496;13.482;2023-07-20T12:16:15;100970.22;;;21.16;51.83
53932;BME280;39844;52.496;13.482;2023-07-20T12:18:42;100972.31;;;20.88;53.46
53932;BME280;39844;52.496;13.482;2023-07-20T12:21:07;100966.22;;;20.64;54.05
53932;BME280;39844;52.496;13.482;2023-07-20T12:23:40;100967.09;;;20.43;54.45
53932;BME280;39844;52.496;13.482;2023-07-20T12:26:07;100969.19;;;20.35;55.84
53932;BME280;39844;52.496;13.482;2023-07-20T12:28:32;100977.50;;;20.27;56.28
53932;BME280;39844;52.496;13.482;2023-07-20T12:30:57;100974.09;;;20.22;56.19
53932;BME280;39844;52.496;13.482;2023-07-20T12:33:23;100980.13;;;20.29;55.94
53932;BME280;39844;52.496;13.482;2023-07-20T12:35:49;100972.50;;;20.41;54.75
53932;BME280;39844;52.496;13.482;2023-07-20T12:38:15;100971.78;;;20.58;53.95
53932;BME280;39844;52.496;13.482;2023-07-20T12:40:40;100978.25;;;20.74;53.39
53932;BME280;39844;52.496;13.482;2023-07-20T12:43:05;100976.28;;;20.77;52.33
53932;BME280;39844;52.496;13.482;2023-07-20T12:45:31;100974.50;;;20.78;51.36
53932;BME280;39844;52.496;13.482;2023-07-20T12:47:56;100971.72;;;20.81;51.66
53932;BME280;39844;52.496;13.482;2023-07-20T12:50:21;100975.19;;;20.83;51.46
53932;BME280;39844;52.496;13.482;2023-07-20T12:52:46;100978.66;;;21.05;50.92